Terminal Aerodrome Forecast
Issued by NWS Cleveland, OH

Home | Current Version | Previous Version | Graphics & Text | Print | Product List | Glossary On
Versions: 1 2 3 4 5 6 7 8 9 10 11 12 13
000
FTUS41 KCLE 272300
TAFERI
TAF
KERI 272328Z 2800/2824 16012KT P6SM BKN250
     FM280300 18012G20KT P6SM VCSH OVC100
     FM280700 19015G25KT P6SM OVC070
     FM281400 20018G30KT P6SM BKN050
     FM281700 21020G32KT 5SM SHRA OVC035
      TEMPO 2819/2822 3SM TSRA OVC025CB
     FM282200 25015G25KT P6SM -SHRA OVC025=

USA.gov is the U.S. government's official web portal to all federal, state and local government web resources and services.